Time;durP1;ratioP1;P1;durP2;ratioP2;P2;SDS_P1;SDS_P2;PMS_P1;PMS_P2;Temp;Humidity;BMP_temperature;BMP_pressure;BME280_temperature;BME280_humidity;BME280_pressure;Samples;Min_cycle;Max_cycle;Signal;HPM_P1;HPM_P2
2021/11/19 00:00:10;;;;;;;1.38;0.88;;;;;;;-1.33;100.00;99083.47;5072795;28;20404;-67
2021/11/19 00:02:37;;;;;;;2.08;0.90;;;;;;;-1.20;100.00;99075.41;5072673;28;20055;-66
2021/11/19 00:05:05;;;;;;;2.30;0.85;;;;;;;-1.07;100.00;99078.38;5072733;28;20048;-66
2021/11/19 00:07:32;;;;;;;1.05;0.70;;;;;;;-1.17;100.00;99076.13;5072374;28;20048;-66
2021/11/19 00:10:01;;;;;;;1.70;0.70;;;;;;;-1.33;100.00;99080.09;5071400;28;20041;-66
2021/11/19 00:12:27;;;;;;;1.15;1.00;;;;;;;-1.29;100.00;99071.41;5072322;28;20048;-66
2021/11/19 00:14:54;;;;;;;1.40;1.10;;;;;;;-1.36;100.00;99064.88;5072479;28;20049;-66
2021/11/19 00:17:21;;;;;;;2.30;1.33;;;;;;;-1.60;100.00;99056.28;5072251;28;20044;-66
2021/11/19 00:19:48;;;;;;;2.22;1.27;;;;;;;-1.50;100.00;99067.88;5072208;28;20052;-65
2021/11/19 00:22:18;;;;;;;1.30;1.20;;;;;;;-1.56;100.00;99058.69;5071862;28;20415;-64
2021/11/19 00:24:45;;;;;;;4.53;1.02;;;;;;;-1.20;100.00;99057.53;5072082;28;20052;-64
2021/11/19 00:27:16;;;;;;;3.25;1.05;;;;;;;-1.16;100.00;99057.34;5071885;28;20052;-65
2021/11/19 00:29:44;;;;;;;2.08;1.00;;;;;;;-1.17;100.00;99047.22;5072565;28;20052;-65
2021/11/19 00:32:11;;;;;;;;;;;;;;;-1.33;100.00;99050.28;5072312;28;20097;-64
2021/11/19 00:34:39;;;;;;;1.55;1.00;;;;;;;-1.50;100.00;99051.72;5072258;28;19974;-65
2021/11/19 00:37:06;;;;;;;1.55;1.13;;;;;;;-1.38;100.00;99052.16;5072201;28;20051;-64
2021/11/19 00:39:33;;;;;;;2.40;1.00;;;;;;;-1.37;100.00;99048.72;5072047;28;20202;-64
2021/11/19 00:42:00;;;;;;;;;;;;;;;-1.28;100.00;99051.84;5072717;28;20044;-64
2021/11/19 00:44:29;;;;;;;;;;;;;;;-1.44;100.00;99051.50;5072445;28;19927;-65
2021/11/19 00:46:56;;;;;;;1.00;0.90;;;;;;;-1.47;100.00;99044.81;5071904;28;20023;-64
2021/11/19 00:49:27;;;;;;;4.72;1.60;;;;;;;-1.40;100.00;99048.00;5071920;28;20055;-64
2021/11/19 00:51:57;;;;;;;3.95;1.10;;;;;;;-1.54;100.00;99043.34;5071825;28;20052;-64
2021/11/19 00:54:24;;;;;;;1.75;1.00;;;;;;;-1.18;100.00;99048.94;5071939;28;20045;-65
2021/11/19 00:56:53;;;;;;;;;;;;;;;-1.13;100.00;99047.06;5072147;28;20048;-64
2021/11/19 00:59:22;;;;;;;0.60;0.60;;;;;;;-1.06;100.00;99039.19;5071549;28;20324;-65
2021/11/19 01:01:52;;;;;;;1.55;0.80;;;;;;;-1.10;100.00;99035.91;5071797;28;20048;-65
2021/11/19 01:04:20;;;;;;;2.95;0.70;;;;;;;-1.16;100.00;99031.84;5071472;28;20056;-65
2021/11/19 01:06:48;;;;;;;1.63;0.80;;;;;;;-1.16;100.00;99034.38;5071747;28;20049;-65
2021/11/19 01:09:19;;;;;;;1.33;0.60;;;;;;;-1.08;100.00;99029.00;5071511;28;20495;-65
2021/11/19 01:11:47;;;;;;;1.15;0.73;;;;;;;-1.19;100.00;99024.28;5071944;28;20067;-65
2021/11/19 01:14:20;;;;;;;1.58;0.70;;;;;;;-1.07;100.00;99024.75;5071187;28;20526;-64
2021/11/19 01:16:52;;;;;;;2.30;0.70;;;;;;;-1.11;100.00;99017.19;5071618;28;20052;-64
2021/11/19 01:19:24;;;;;;;2.95;0.80;;;;;;;-1.13;100.00;99013.88;5071710;28;20048;-64
2021/11/19 01:21:53;;;;;;;1.25;0.70;;;;;;;-1.04;100.00;99028.03;5075168;28;20048;-64
2021/11/19 01:24:20;;;;;;;3.47;0.80;;;;;;;-1.20;100.00;99024.34;5075064;28;20132;-64
2021/11/19 01:26:48;;;;;;;1.05;0.80;;;;;;;-1.24;100.00;99033.81;5075746;28;20044;-64
2021/11/19 01:29:17;;;;;;;1.52;0.70;;;;;;;-1.17;100.00;99044.66;5075462;28;20048;-64
2021/11/19 01:31:48;;;;;;;2.10;0.70;;;;;;;-1.19;100.00;99041.31;5075624;28;20063;-64
2021/11/19 01:34:17;;;;;;;2.67;0.60;;;;;;;-1.13;100.00;99043.66;5075061;28;20383;-64
2021/11/19 01:36:45;;;;;;;2.67;0.70;;;;;;;-1.18;100.00;99046.38;5075254;28;20063;-64
2021/11/19 01:39:14;;;;;;;0.63;0.60;;;;;;;-1.11;100.00;99045.28;5075235;28;20072;-64
2021/11/19 01:41:44;;;;;;;1.30;0.60;;;;;;;-1.03;100.00;99045.00;5075159;28;20048;-64
2021/11/19 01:44:15;;;;;;;2.83;0.80;;;;;;;-1.03;100.00;99032.25;5074897;28;20052;-64
2021/11/19 01:46:44;;;;;;;2.28;0.68;;;;;;;-1.08;99.89;99040.94;5074921;28;20513;-64
2021/11/19 01:49:12;;;;;;;1.17;0.68;;;;;;;-1.04;99.73;99037.41;5074945;28;20052;-64
2021/11/19 01:51:42;;;;;;;;;;;;;;;-1.06;99.84;99027.25;5075682;28;20052;-64
2021/11/19 01:54:13;;;;;;;1.42;0.75;;;;;;;-1.06;100.00;99021.31;5074960;28;19920;-64
2021/11/19 01:56:43;;;;;;;1.85;0.52;;;;;;;-1.14;100.00;99017.31;5074875;28;20049;-64
2021/11/19 01:59:13;;;;;;;0.73;0.70;;;;;;;-1.20;100.00;99014.97;5074525;28;20410;-65
2021/11/19 02:01:44;;;;;;;3.03;0.80;;;;;;;-1.08;100.00;99015.41;5075012;28;20383;-65
2021/11/19 02:04:14;;;;;;;0.70;0.70;;;;;;;-1.13;100.00;99008.78;5074527;28;20054;-66
2021/11/19 02:06:45;;;;;;;1.55;0.70;;;;;;;-1.17;100.00;99012.31;5075044;28;20282;-65
2021/11/19 02:09:24;;;;;;;2.35;0.60;;;;;;;-1.18;100.00;99003.00;5074742;28;20055;-66
2021/11/19 02:12:01;;;;;;;1.95;1.08;;;;;;;-1.07;100.00;98999.25;5074767;28;20052;-66
2021/11/19 02:14:45;;;;;;;3.33;0.80;;;;;;;-1.13;100.00;98998.56;5074212;28;20052;-65
2021/11/19 02:17:12;;;;;;;3.20;0.80;;;;;;;-1.06;99.80;98995.78;5074545;28;20067;-65
2021/11/19 02:19:45;;;;;;;0.70;0.70;;;;;;;-1.07;99.90;99000.06;5074738;28;20045;-65
2021/11/19 02:22:17;;;;;;;1.52;0.70;;;;;;;-1.04;99.65;98996.56;5074128;28;20504;-65
2021/11/19 02:24:47;;;;;;;1.45;0.90;;;;;;;-1.08;99.69;99002.66;5074605;28;20071;-65
2021/11/19 02:27:16;;;;;;;1.17;0.80;;;;;;;-1.11;100.00;98991.66;5074130;28;20048;-65
2021/11/19 02:29:48;;;;;;;1.48;0.63;;;;;;;-1.07;99.96;98989.84;5074278;28;20486;-66
2021/11/19 02:32:18;;;;;;;0.88;0.68;;;;;;;-1.13;99.73;98990.06;5072945;28;20059;-65
2021/11/19 02:34:45;;;;;;;0.98;0.70;;;;;;;-1.15;99.89;98982.47;5074081;28;20052;-66
2021/11/19 02:37:18;;;;;;;2.53;0.68;;;;;;;-1.10;99.61;98983.13;5073809;28;20048;-65
2021/11/19 02:39:49;;;;;;;0.70;0.70;;;;;;;-1.04;99.52;98983.81;5074133;28;20052;-65
2021/11/19 02:42:20;;;;;;;1.42;0.88;;;;;;;-1.11;99.44;98981.47;5073882;28;20055;-65
2021/11/19 02:44:50;;;;;;;0.98;0.70;;;;;;;-1.05;99.23;98988.09;5074218;28;20056;-65
2021/11/19 02:47:20;;;;;;;1.20;0.70;;;;;;;-1.12;99.47;98990.00;5073560;28;20491;-65
2021/11/19 02:49:47;;;;;;;0.60;0.55;;;;;;;-1.09;99.32;98986.53;5074195;28;20048;-65
2021/11/19 02:52:20;;;;;;;1.52;0.90;;;;;;;-1.11;99.69;98981.47;5073559;28;20056;-65
2021/11/19 02:54:48;;;;;;;0.63;0.57;;;;;;;-1.15;99.25;98979.91;5074023;28;20048;-65
2021/11/19 02:57:16;;;;;;;1.90;0.60;;;;;;;-1.11;99.55;98975.53;5073579;28;20068;-65
2021/11/19 02:59:44;;;;;;;3.40;0.90;;;;;;;-1.11;99.52;98971.25;5074027;28;20056;-65
2021/11/19 03:02:14;;;;;;;1.85;0.80;;;;;;;-1.09;99.56;98966.09;5073282;28;20498;-65
2021/11/19 03:04:43;;;;;;;3.83;0.85;;;;;;;-1.15;99.14;98961.22;5073507;28;20048;-65
2021/11/19 03:07:11;;;;;;;0.80;0.60;;;;;;;-1.21;99.53;98956.31;5073450;28;20054;-65
2021/11/19 03:09:43;;;;;;;0.93;0.70;;;;;;;-1.20;99.57;98961.38;5073736;28;20051;-65
2021/11/19 03:12:13;;;;;;;0.88;0.70;;;;;;;-1.28;99.33;98963.38;5073465;28;20052;-65
2021/11/19 03:14:41;;;;;;;2.50;0.70;;;;;;;-1.33;99.94;98958.44;5073128;28;20057;-65
2021/11/19 03:17:11;;;;;;;2.97;1.00;;;;;;;-1.23;99.85;98955.53;5073340;28;20053;-65
2021/11/19 03:19:38;;;;;;;4.28;0.90;;;;;;;-1.15;99.01;98956.94;5073141;28;20052;-65
2021/11/19 03:22:07;;;;;;;1.10;0.70;;;;;;;-1.13;99.65;98955.19;5073522;28;20052;-65
2021/11/19 03:24:34;;;;;;;1.13;0.60;;;;;;;-1.18;99.66;98957.06;5073001;28;20048;-65
2021/11/19 03:27:03;;;;;;;1.50;0.60;;;;;;;-1.08;98.96;98957.53;5073046;28;20048;-65
2021/11/19 03:29:30;;;;;;;2.42;0.60;;;;;;;-1.01;99.48;98956.44;5072803;28;20612;-65
2021/11/19 03:31:58;;;;;;;0.80;0.60;;;;;;;-0.98;99.39;98950.38;5073362;28;20083;-65
2021/11/19 03:34:25;;;;;;;0.65;0.60;;;;;;;-1.00;99.65;98944.50;5072849;28;20055;-65
2021/11/19 03:36:55;;;;;;;2.50;0.60;;;;;;;-0.95;99.62;98943.47;5073171;28;20044;-65
2021/11/19 03:39:25;;;;;;;0.85;0.60;;;;;;;-0.90;99.16;98943.28;5072572;28;20058;-65
2021/11/19 03:41:56;;;;;;;2.58;0.80;;;;;;;-0.89;99.03;98935.56;5072835;28;20048;-65
2021/11/19 03:44:28;;;;;;;3.72;0.77;;;;;;;-0.97;99.24;98927.38;5072343;28;20384;-65
2021/11/19 03:46:59;;;;;;;0.70;0.70;;;;;;;-0.96;99.63;98923.09;5072827;28;20055;-65
2021/11/19 03:49:26;;;;;;;1.27;0.80;;;;;;;-0.96;99.53;98918.81;5072800;28;20059;-66
2021/11/19 03:51:56;;;;;;;1.65;0.68;;;;;;;-0.94;99.39;98918.75;5072701;28;20056;-65
2021/11/19 03:54:26;;;;;;;2.40;0.77;;;;;;;-0.95;99.80;98917.06;5072714;28;20135;-65
2021/11/19 03:56:53;;;;;;;2.58;0.82;;;;;;;-0.99;100.00;98920.66;5072444;28;20064;-65
2021/11/19 03:59:21;;;;;;;1.33;0.80;;;;;;;-0.95;99.48;98909.41;5072178;28;20418;-65
2021/11/19 04:01:51;;;;;;;3.85;0.93;;;;;;;-0.96;99.68;98902.66;5072499;28;20053;-65
2021/11/19 04:04:20;;;;;;;1.50;0.70;;;;;;;-0.92;99.48;98896.56;5072204;28;20532;-66
2021/11/19 04:06:47;;;;;;;2.00;0.68;;;;;;;-0.91;98.92;98899.03;5072415;28;20044;-65
2021/11/19 04:09:14;;;;;;;1.95;0.70;;;;;;;-0.95;99.15;98896.66;5072495;28;20096;-65
2021/11/19 04:11:41;;;;;;;;;;;;;;;-0.90;98.84;98899.88;5072711;28;20048;-66
2021/11/19 04:14:08;;;;;;;;;;;;;;;-0.92;98.66;98897.41;5072647;28;19920;-66
2021/11/19 04:16:38;;;;;;;1.55;0.60;;;;;;;-0.93;99.07;98892.34;5072438;28;19921;-65
2021/11/19 04:19:09;;;;;;;3.22;0.70;;;;;;;-0.91;98.97;98882.91;5072271;28;20052;-66
2021/11/19 04:21:37;;;;;;;0.50;0.50;;;;;;;-0.97;98.40;98883.13;5072283;28;20052;-65
2021/11/19 04:24:07;;;;;;;0.85;0.70;;;;;;;-0.88;98.53;98880.22;5072191;28;20055;-65
2021/11/19 04:26:35;;;;;;;0.60;0.60;;;;;;;-0.79;98.16;98879.88;5071923;28;20410;-66
2021/11/19 04:29:02;;;;;;;0.60;0.60;;;;;;;-0.79;97.75;98877.34;5072123;28;20044;-65
2021/11/19 04:31:31;;;;;;;1.13;0.57;;;;;;;-0.79;97.69;98871.41;5072006;28;20055;-65
2021/11/19 04:34:00;;;;;;;0.60;0.60;;;;;;;-0.88;98.18;98864.91;5072353;28;20048;-65
2021/11/19 04:36:28;;;;;;;0.68;0.65;;;;;;;-0.84;98.39;98870.75;5071805;28;20057;-65
2021/11/19 04:38:55;;;;;;;1.05;0.60;;;;;;;-0.78;98.09;98867.94;5071853;28;20048;-65
2021/11/19 04:41:23;;;;;;;0.70;0.70;;;;;;;-0.74;97.68;98866.94;5072056;28;20050;-66
2021/11/19 04:43:50;;;;;;;0.57;0.57;;;;;;;-0.77;97.50;98869.59;5072186;28;20044;-66
2021/11/19 04:46:18;;;;;;;1.00;0.60;;;;;;;-0.75;97.09;98860.16;5071749;28;20509;-65
2021/11/19 04:48:45;;;;;;;1.60;1.00;;;;;;;-0.70;96.75;98861.63;5072215;28;20083;-65
2021/11/19 04:51:15;;;;;;;2.65;1.00;;;;;;;-0.68;96.82;98861.59;5071971;28;20056;-65
2021/11/19 04:53:44;;;;;;;3.05;0.90;;;;;;;-0.69;96.93;98855.66;5071911;28;20548;-65
2021/11/19 04:56:12;;;;;;;1.67;0.50;;;;;;;-0.66;96.51;98852.16;5074109;28;20055;-65
2021/11/19 04:58:39;;;;;;;;;;;;;;;-0.64;96.67;98850.38;5076229;28;20041;-65
2021/11/19 05:01:07;;;;;;;;;;;;;;;-0.65;96.94;98853.78;5076417;28;20002;-65
2021/11/19 05:03:34;;;;;;;0.50;0.50;;;;;;;-0.70;97.75;98851.41;5075704;28;19921;-65
2021/11/19 05:06:01;;;;;;;0.75;0.68;;;;;;;-0.73;97.38;98845.59;5076085;28;20053;-65
2021/11/19 05:08:28;;;;;;;0.60;0.60;;;;;;;-0.85;98.31;98841.78;5075811;28;20161;-65
2021/11/19 05:10:57;;;;;;;2.20;0.80;;;;;;;-0.69;97.73;98847.16;5075994;28;20418;-65
2021/11/19 05:13:26;;;;;;;1.20;0.90;;;;;;;-0.72;98.23;98837.03;5075547;28;20056;-66
2021/11/19 05:15:54;;;;;;;1.40;0.70;;;;;;;-0.65;96.89;98838.47;5075987;28;20045;-65
2021/11/19 05:18:23;;;;;;;3.13;0.60;;;;;;;-0.62;97.19;98835.78;5075616;28;20044;-65
2021/11/19 05:20:51;;;;;;;0.93;0.63;;;;;;;-0.71;97.13;98828.50;5075786;28;20049;-65
2021/11/19 05:23:18;;;;;;;1.20;0.90;;;;;;;-0.72;97.51;98826.81;5075421;28;20057;-65
2021/11/19 05:25:46;;;;;;;3.15;0.90;;;;;;;-0.77;96.79;98823.63;5075490;28;20045;-65
2021/11/19 05:28:15;;;;;;;;;;;;;;;-0.72;97.52;98830.25;5075898;28;20044;-65
2021/11/19 05:30:42;;;;;;;1.63;0.80;;;;;;;-0.78;97.69;98827.09;5075274;28;19921;-66
2021/11/19 05:33:12;;;;;;;1.17;0.70;;;;;;;-0.88;97.94;98824.88;5075330;28;20062;-66
2021/11/19 05:35:39;;;;;;;1.02;0.70;;;;;;;-0.74;97.59;98818.41;5075463;28;20052;-67
2021/11/19 05:38:07;;;;;;;1.90;0.90;;;;;;;-0.75;97.72;98824.41;5075079;28;20053;-67
2021/11/19 05:40:35;;;;;;;1.35;0.75;;;;;;;-0.80;97.97;98818.66;5074872;28;20058;-67
2021/11/19 05:43:02;;;;;;;0.65;0.60;;;;;;;-0.86;97.54;98806.97;5075331;28;20059;-66
2021/11/19 05:45:33;;;;;;;1.30;0.80;;;;;;;-0.84;98.17;98801.81;5075047;28;20066;-67
2021/11/19 05:48:00;;;;;;;1.75;1.00;;;;;;;-0.84;97.63;98796.69;5075320;28;20052;-67
2021/11/19 05:50:30;;;;;;;1.85;0.60;;;;;;;-0.92;98.29;98791.88;5075002;28;20052;-67
2021/11/19 05:52:58;;;;;;;0.82;0.70;;;;;;;-1.03;97.86;98789.72;5074824;28;20056;-67
2021/11/19 05:55:28;;;;;;;0.77;0.70;;;;;;;-0.83;97.79;98791.50;5074555;28;20106;-67
2021/11/19 05:57:54;;;;;;;1.65;0.70;;;;;;;-0.81;97.67;98784.63;5074809;28;20495;-67
2021/11/19 06:00:26;;;;;;;1.83;0.70;;;;;;;-0.81;97.71;98794.00;5074511;28;20052;-67
2021/11/19 06:02:55;;;;;;;1.02;0.60;;;;;;;-0.74;97.29;98792.88;5074806;28;20049;-67
2021/11/19 06:05:23;;;;;;;3.08;0.80;;;;;;;-0.81;97.52;98794.84;5074708;28;20072;-66
2021/11/19 06:07:50;;;;;;;1.80;0.80;;;;;;;-0.87;97.45;98787.44;5074643;28;20044;-66
2021/11/19 06:10:18;;;;;;;1.23;0.80;;;;;;;-0.88;97.68;98793.41;5074432;28;20048;-67
2021/11/19 06:12:50;;;;;;;2.88;0.93;;;;;;;-0.89;97.59;98791.75;5074617;28;20052;-68
2021/11/19 06:15:20;;;;;;;1.23;0.70;;;;;;;-0.78;97.37;98788.78;5074673;28;20052;-67
2021/11/19 06:17:59;;;;;;;2.38;0.90;;;;;;;-0.83;97.59;98783.03;5074520;28;20529;-67
2021/11/19 06:20:30;;;;;;;0.60;0.60;;;;;;;-0.75;97.38;98784.38;5074163;28;20047;-67
2021/11/19 06:22:59;;;;;;;2.45;0.80;;;;;;;-0.79;97.61;98789.69;5074499;28;20052;-66
2021/11/19 06:25:30;;;;;;;2.35;0.90;;;;;;;-0.78;97.54;98789.59;5074471;28;20048;-67
2021/11/19 06:28:00;;;;;;;1.40;0.80;;;;;;;-0.72;97.83;98791.06;5074684;28;20121;-67
2021/11/19 06:30:27;;;;;;;2.75;0.93;;;;;;;-0.63;97.42;98785.59;5074094;28;20487;-66
2021/11/19 06:32:55;;;;;;;3.17;1.00;;;;;;;-0.76;97.09;98784.44;5074230;28;20044;-68
2021/11/19 06:35:22;;;;;;;2.80;1.15;;;;;;;-0.71;97.26;98787.66;5074019;28;20048;-67
2021/11/19 06:37:50;;;;;;;2.35;0.93;;;;;;;-0.64;96.69;98786.50;5074097;28;20048;-67
2021/11/19 06:40:20;;;;;;;2.00;1.10;;;;;;;-0.71;97.34;98788.47;5073838;28;20048;-67
2021/11/19 06:42:47;;;;;;;2.83;0.90;;;;;;;-0.79;97.54;98787.94;5074005;28;20063;-66
2021/11/19 06:45:15;;;;;;;2.58;0.82;;;;;;;-0.74;97.43;98783.50;5073721;28;20056;-67
2021/11/19 06:47:42;;;;;;;1.52;0.80;;;;;;;-0.65;97.20;98782.28;5074178;28;20453;-67
2021/11/19 06:50:10;;;;;;;;;;;;;;;-0.71;96.88;98777.44;5074703;28;20075;-67
2021/11/19 06:52:38;;;;;;;3.25;0.80;;;;;;;-0.77;97.87;98781.06;5074108;28;19924;-66
2021/11/19 06:55:08;;;;;;;2.97;0.77;;;;;;;-0.63;97.34;98777.94;5073737;28;20059;-66
2021/11/19 06:57:35;;;;;;;1.73;1.00;;;;;;;-0.58;97.48;98772.66;5073741;28;20056;-67
2021/11/19 07:00:06;;;;;;;3.10;0.80;;;;;;;-0.64;97.52;98770.31;5073904;28;20379;-67
2021/11/19 07:02:32;;;;;;;3.38;0.90;;;;;;;-0.68;97.67;98751.75;5073684;28;20049;-67
2021/11/19 07:04:59;;;;;;;2.47;0.73;;;;;;;-0.73;98.37;98748.56;5073849;28;20055;-67
2021/11/19 07:07:26;;;;;;;2.88;0.80;;;;;;;-0.62;98.03;98751.50;5073549;28;20055;-67
2021/11/19 07:09:53;;;;;;;2.88;1.00;;;;;;;-0.69;98.04;98742.44;5073824;28;20294;-67
2021/11/19 07:12:21;;;;;;;5.50;1.10;;;;;;;-0.69;98.53;98742.44;5073266;28;20052;-67
2021/11/19 07:14:48;;;;;;;1.75;0.60;;;;;;;-0.68;98.15;98749.19;5073297;28;20060;-67
2021/11/19 07:17:16;;;;;;;0.68;0.65;;;;;;;-0.68;98.13;98742.38;5073026;28;20531;-67
2021/11/19 07:19:43;;;;;;;;;;;;;;;-0.67;97.95;98738.09;5073331;28;20052;-67
2021/11/19 07:22:10;;;;;;;4.13;1.02;;;;;;;-0.68;98.06;98742.38;5073559;28;19926;-66
2021/11/19 07:24:38;;;;;;;;;;;;;;;-0.68;97.84;98734.72;5073994;28;20198;-67
2021/11/19 07:27:06;;;;;;;0.90;0.85;;;;;;;-0.68;97.78;98739.81;5073376;28;19944;-67
2021/11/19 07:29:35;;;;;;;4.70;0.90;;;;;;;-0.72;98.45;98740.84;5073093;28;20041;-67
2021/11/19 07:32:02;;;;;;;2.25;0.80;;;;;;;-0.69;98.13;98735.59;5073027;28;20411;-67
2021/11/19 07:34:30;;;;;;;2.22;0.77;;;;;;;-0.67;97.51;98741.50;5072787;28;20113;-67
2021/11/19 07:36:57;;;;;;;1.05;0.80;;;;;;;-0.65;97.72;98736.31;5072953;28;20049;-67
2021/11/19 07:39:24;;;;;;;;;;;;;;;-0.67;97.61;98744.03;5073260;28;20048;-67
2021/11/19 07:41:51;;;;;;;0.63;0.63;;;;;;;-0.61;97.15;98737.03;5072848;28;19920;-66
2021/11/19 07:44:18;;;;;;;1.02;0.70;;;;;;;-0.56;96.98;98745.31;5072873;28;20059;-66
2021/11/19 07:46:46;;;;;;;2.15;0.70;;;;;;;-0.59;97.48;98741.19;5072789;28;20052;-66
2021/11/19 07:49:13;;;;;;;1.33;0.80;;;;;;;-0.57;96.89;98736.81;5072511;28;20045;-67
2021/11/19 07:51:43;;;;;;;0.93;0.77;;;;;;;-0.57;97.25;98743.66;5072961;28;20402;-67
2021/11/19 07:54:11;;;;;;;0.82;0.82;;;;;;;-0.51;96.84;98733.19;5072853;28;20052;-67
2021/11/19 07:56:39;;;;;;;3.92;0.75;;;;;;;-0.52;96.68;98736.63;5072597;28;20052;-67
2021/11/19 07:59:10;;;;;;;3.42;0.80;;;;;;;-0.58;97.05;98731.78;5072236;28;20041;-67
2021/11/19 08:01:38;;;;;;;3.40;0.70;;;;;;;-0.48;96.95;98740.72;5072708;28;20048;-67
2021/11/19 08:04:06;;;;;;;3.88;0.80;;;;;;;-0.49;96.40;98741.59;5072452;28;20405;-67
2021/11/19 08:06:34;;;;;;;3.03;2.72;;;;;;;-0.45;96.64;98748.25;5072147;28;20486;-67
2021/11/19 08:09:02;;;;;;;3.85;0.90;;;;;;;-0.50;96.44;98740.78;5072542;28;20044;-67
2021/11/19 08:11:29;;;;;;;2.42;1.00;;;;;;;-0.52;97.22;98744.28;5072039;28;20502;-66
2021/11/19 08:13:56;;;;;;;0.75;0.60;;;;;;;-0.53;97.19;98734.97;5072046;28;20495;-66
2021/11/19 08:16:23;;;;;;;;;;;;;;;-0.47;96.97;98735.53;5072750;28;20052;-67
2021/11/19 08:18:54;;;;;;;2.15;0.85;;;;;;;-0.50;97.13;98733.09;5072241;28;20378;-67
2021/11/19 08:21:23;;;;;;;4.13;0.95;;;;;;;-0.50;96.99;98725.44;5072299;28;20090;-67
2021/11/19 08:23:57;;;;;;;3.72;0.98;;;;;;;-0.43;96.67;98723.47;5072141;28;20060;-67
2021/11/19 08:26:28;;;;;;;1.85;0.75;;;;;;;-0.38;96.33;98718.19;5071986;28;20048;-67
2021/11/19 08:28:55;;;;;;;2.60;1.00;;;;;;;-0.49;96.71;98711.78;5072276;28;20048;-66
2021/11/19 08:31:24;;;;;;;2.72;0.90;;;;;;;-0.39;96.32;98704.53;5071293;28;20053;-67
2021/11/19 08:33:52;;;;;;;2.78;0.80;;;;;;;-0.45;96.16;98697.97;5072330;28;20044;-67
2021/11/19 08:36:20;;;;;;;3.97;0.90;;;;;;;-0.51;96.69;98705.91;5072053;28;20053;-67
2021/11/19 08:38:49;;;;;;;2.97;0.85;;;;;;;-0.45;97.17;98699.72;5072141;28;20049;-67
2021/11/19 08:41:17;;;;;;;2.75;1.13;;;;;;;-0.40;95.66;98691.84;5071507;28;20041;-67
2021/11/19 08:43:47;;;;;;;1.77;0.80;;;;;;;-0.37;96.30;98696.81;5072275;28;20060;-67
2021/11/19 08:46:18;;;;;;;3.75;1.08;;;;;;;-0.35;95.54;98700.16;5071594;28;20426;-67
2021/11/19 08:48:49;;;;;;;1.17;0.60;;;;;;;-0.26;95.48;98689.50;5071933;28;20044;-67
2021/11/19 08:51:19;;;;;;;2.78;0.80;;;;;;;-0.29;95.77;98687.91;5071738;28;20053;-67
2021/11/19 08:53:48;;;;;;;1.67;0.80;;;;;;;-0.30;95.32;98685.44;5072168;28;20456;-67
2021/11/19 08:56:15;;;;;;;3.53;0.98;;;;;;;-0.22;95.41;98673.16;5071842;28;20045;-67
2021/11/19 08:58:44;;;;;;;2.63;0.85;;;;;;;-0.29;95.22;98679.44;5072018;28;20052;-67
2021/11/19 09:01:13;;;;;;;2.95;0.80;;;;;;;-0.47;96.50;98675.94;5071478;28;20052;-67
2021/11/19 09:03:41;;;;;;;1.63;0.90;;;;;;;-0.32;95.85;98671.91;5071781;28;20482;-67
2021/11/19 09:06:11;;;;;;;3.63;0.80;;;;;;;-0.29;95.76;98672.59;5071733;28;20376;-67
2021/11/19 09:08:40;;;;;;;2.95;0.90;;;;;;;-0.30;96.05;98678.59;5071729;28;20059;-67
2021/11/19 09:11:11;;;;;;;7.32;0.93;;;;;;;-0.27;95.49;98675.91;5071926;28;20040;-67
2021/11/19 09:13:38;;;;;;;4.25;0.90;;;;;;;-0.26;95.05;98675.03;5071492;28;20499;-67
2021/11/19 09:16:08;;;;;;;2.35;0.98;;;;;;;-0.27;95.23;98663.13;5071921;28;20067;-67
2021/11/19 09:18:43;;;;;;;3.70;0.93;;;;;;;-0.20;95.53;98665.44;5071411;28;20045;-67
2021/11/19 09:21:16;;;;;;;1.08;0.70;;;;;;;-0.24;95.74;98654.50;5071693;28;20072;-67
2021/11/19 09:23:46;;;;;;;2.72;0.82;;;;;;;-0.20;94.82;98648.38;5071570;28;20053;-67
2021/11/19 09:26:18;;;;;;;3.17;1.08;;;;;;;-0.16;95.04;98641.38;5071341;28;20058;-67
2021/11/19 09:28:48;;;;;;;1.98;0.80;;;;;;;-0.21;95.46;98646.69;5071590;28;20056;-67
2021/11/19 09:31:18;;;;;;;7.00;0.90;;;;;;;-0.18;95.28;98638.06;5071589;28;20055;-66
2021/11/19 09:33:46;;;;;;;2.00;0.80;;;;;;;-0.18;95.43;98638.91;5071341;28;20048;-67
2021/11/19 09:36:13;;;;;;;1.85;1.10;;;;;;;-0.10;94.94;98636.00;5071478;28;20060;-66
2021/11/19 09:38:40;;;;;;;3.47;1.13;;;;;;;0.00;94.21;98637.25;5071454;28;20049;-67
2021/11/19 09:41:43;;;;;;;3.22;1.45;;;;;;;-0.02;94.08;98634.75;5071719;28;20045;-67
2021/11/19 09:44:34;;;;;;;3.17;1.13;;;;;;;-0.04;94.45;98621.19;5072516;28;20045;-67
2021/11/19 09:47:22;;;;;;;2.85;1.00;;;;;;;-0.09;94.16;98630.81;5075409;28;20054;-66
2021/11/19 09:50:22;;;;;;;2.30;1.08;;;;;;;-0.01;94.42;98620.22;5075032;28;20056;-66
2021/11/19 09:53:40;;;;;;;0.70;0.70;;;;;;;-0.03;94.31;98609.25;5074860;28;20056;-66
2021/11/19 09:56:33;;;;;;;5.70;1.10;;;;;;;-0.02;94.12;98611.75;5075204;28;20054;-67
2021/11/19 09:59:12;;;;;;;2.17;0.98;;;;;;;0.04;94.16;98607.25;5071984;28;20048;-67
2021/11/19 10:01:56;;;;;;;1.45;0.80;;;;;;;0.02;94.67;98602.19;5075015;28;20066;-66
2021/11/19 10:04:47;;;;;;;1.27;0.77;;;;;;;-0.01;95.23;98600.59;5074907;28;20049;-67
2021/11/19 10:07:26;;;;;;;1.73;1.25;;;;;;;0.20;94.59;98609.00;5074776;28;20059;-67
2021/11/19 10:10:27;;;;;;;2.65;1.10;;;;;;;0.32;93.59;98609.34;5075077;28;20040;-67
2021/11/19 10:13:00;;;;;;;2.85;0.80;;;;;;;0.21;94.42;98599.63;5074760;28;20098;-67
2021/11/19 10:15:48;;;;;;;2.17;1.00;;;;;;;0.18;94.43;98599.75;5074616;28;20052;-67
2021/11/19 10:18:22;;;;;;;3.40;0.80;;;;;;;0.19;94.62;98606.53;5074673;28;20049;-67
2021/11/19 10:20:52;;;;;;;2.22;0.80;;;;;;;0.34;94.36;98603.25;5074344;28;20520;-67
2021/11/19 10:23:22;;;;;;;6.57;0.93;;;;;;;0.46;93.46;98604.38;5074126;28;20048;-66
2021/11/19 10:25:55;;;;;;;1.48;0.80;;;;;;;0.67;92.82;98601.69;5074448;28;20049;-67
2021/11/19 10:28:27;;;;;;;2.50;1.13;;;;;;;0.70;92.39;98597.25;5074132;28;20044;-66
2021/11/19 10:30:55;;;;;;;2.33;1.08;;;;;;;0.65;91.73;98597.47;5074442;28;20399;-67
2021/11/19 10:33:27;;;;;;;4.97;1.20;;;;;;;0.50;92.52;98584.59;5074113;28;20055;-66
2021/11/19 10:36:07;;;;;;;2.03;0.90;;;;;;;0.50;91.65;98582.88;5074840;28;20051;-66
2021/11/19 10:38:54;;;;;;;0.77;0.73;;;;;;;0.49;91.94;98578.66;5073952;28;20060;-66
2021/11/19 10:42:04;;;;;;;1.98;1.02;;;;;;;0.37;93.00;98572.41;5073884;28;20044;-67
2021/11/19 10:44:54;;;;;;;2.15;0.82;;;;;;;0.36;92.76;98564.78;5073780;28;20068;-67
2021/11/19 10:47:42;;;;;;;2.10;0.73;;;;;;;0.47;92.40;98561.75;5074095;28;20052;-67
2021/11/19 10:50:58;;;;;;;1.30;0.60;;;;;;;0.51;92.09;98558.94;5074049;28;20585;-66
2021/11/19 10:54:01;;;;;;;2.45;1.10;;;;;;;0.39;92.64;98565.50;5072951;28;20063;-66
2021/11/19 10:56:39;;;;;;;2.33;1.00;;;;;;;0.39;92.73;98557.00;5073550;28;20490;-67
2021/11/19 10:59:27;;;;;;;3.00;0.85;;;;;;;0.32;92.76;98556.44;5073654;28;20048;-67
2021/11/19 11:01:59;;;;;;;4.95;1.10;;;;;;;0.40;92.95;98556.06;5073601;28;20044;-66
2021/11/19 11:04:30;;;;;;;3.15;1.05;;;;;;;0.45;91.71;98554.13;5073421;28;20053;-67
2021/11/19 11:07:19;;;;;;;1.77;0.93;;;;;;;0.48;91.98;98550.59;5073621;28;20048;-66
2021/11/19 11:09:50;;;;;;;5.97;1.33;;;;;;;0.42;91.98;98546.59;5073436;28;20056;-67
2021/11/19 11:12:27;;;;;;;5.97;0.80;;;;;;;0.37;92.37;98543.44;5073676;28;20070;-67
2021/11/19 11:15:24;;;;;;;5.07;1.40;;;;;;;0.37;92.17;98544.25;5073330;28;20118;-66
2021/11/19 11:18:03;;;;;;;2.53;0.98;;;;;;;0.31;92.68;98546.28;5073630;28;20074;-67
2021/11/19 11:20:32;;;;;;;3.15;0.98;;;;;;;0.27;92.85;98544.78;5073317;28;20049;-67
2021/11/19 11:23:16;;;;;;;3.42;1.00;;;;;;;0.42;93.08;98542.31;5073590;28;20201;-66
2021/11/19 11:25:43;;;;;;;2.45;1.10;;;;;;;0.83;90.70;98530.94;5073304;28;20526;-67
2021/11/19 11:28:14;;;;;;;4.32;0.80;;;;;;;0.75;91.23;98531.31;5073123;28;20060;-67
2021/11/19 11:30:52;;;;;;;2.28;0.77;;;;;;;0.42;91.92;98529.50;5073953;28;20040;-66
2021/11/19 11:33:22;;;;;;;4.43;0.80;;;;;;;0.25;93.13;98526.13;5073289;28;20052;-66
2021/11/19 11:35:51;;;;;;;4.25;1.00;;;;;;;0.21;92.77;98533.94;5073273;28;20040;-65
2021/11/19 11:38:28;;;;;;;3.38;0.75;;;;;;;0.12;93.49;98524.16;5073015;28;20055;-65
2021/11/19 11:41:06;;;;;;;2.60;1.00;;;;;;;-0.01;93.73;98525.63;5073078;28;20055;-65
2021/11/19 11:43:36;;;;;;;2.83;0.93;;;;;;;-0.08;94.14;98521.72;5072786;28;20052;-65
2021/11/19 11:46:22;;;;;;;2.70;1.17;;;;;;;0.06;93.63;98523.63;5072887;28;20053;-65
2021/11/19 11:49:02;;;;;;;2.83;1.07;;;;;;;-0.01;93.72;98518.78;5073162;28;20053;-67
2021/11/19 11:51:45;;;;;;;3.10;1.48;;;;;;;-0.06;93.96;98510.50;5072706;28;20364;-67
2021/11/19 11:54:22;;;;;;;3.22;1.30;;;;;;;-0.06;93.81;98502.84;5072514;28;20059;-67